sensor_id;sensor_type;location;lat;lon;timestamp;temperature;humidity
9118;DHT22;4594;50.994;7.126;2023-01-28T00:01:57;5.70;50.60
9118;DHT22;4594;50.994;7.126;2023-01-28T00:04:23;5.60;50.50
9118;DHT22;4594;50.994;7.126;2023-01-28T00:06:49;5.50;50.50
9118;DHT22;4594;50.994;7.126;2023-01-28T00:09:14;5.50;50.50
9118;DHT22;4594;50.994;7.126;2023-01-28T00:11:40;5.40;50.30
9118;DHT22;4594;50.994;7.126;2023-01-28T00:14:07;5.30;50.20
9118;DHT22;4594;50.994;7.126;2023-01-28T00:16:32;5.20;50.10
9118;DHT22;4594;50.994;7.126;2023-01-28T00:18:58;5.10;50.00
9118;DHT22;4594;50.994;7.126;2023-01-28T00:21:24;5.10;50.10
9118;DHT22;4594;50.994;7.126;2023-01-28T00:23:54;5.00;50.00
9118;DHT22;4594;50.994;7.126;2023-01-28T00:26:21;5.00;49.50
9118;DHT22;4594;50.994;7.126;2023-01-28T00:28:49;4.90;50.10
9118;DHT22;4594;50.994;7.126;2023-01-28T00:31:18;4.80;49.80
9118;DHT22;4594;50.994;7.126;2023-01-28T00:33:52;4.70;49.60
9118;DHT22;4594;50.994;7.126;2023-01-28T00:36:19;4.70;49.80
9118;DHT22;4594;50.994;7.126;2023-01-28T00:38:51;4.60;49.60
9118;DHT22;4594;50.994;7.126;2023-01-28T00:41:19;4.50;49.30
9118;DHT22;4594;50.994;7.126;2023-01-28T00:43:47;4.50;49.60
9118;DHT22;4594;50.994;7.126;2023-01-28T00:46:14;4.40;49.60
9118;DHT22;4594;50.994;7.126;2023-01-28T00:48:41;4.30;49.50
9118;DHT22;4594;50.994;7.126;2023-01-28T00:51:08;4.30;49.50
9118;DHT22;4594;50.994;7.126;2023-01-28T00:53:36;4.20;49.40
9118;DHT22;4594;50.994;7.126;2023-01-28T00:56:03;4.20;49.40
9118;DHT22;4594;50.994;7.126;2023-01-28T00:58:31;4.10;49.30
9118;DHT22;4594;50.994;7.126;2023-01-28T01:03:35;4.00;48.80
9118;DHT22;4594;50.994;7.126;2023-01-28T01:06:01;3.90;49.30
9118;DHT22;4594;50.994;7.126;2023-01-28T01:08:27;3.80;49.30
9118;DHT22;4594;50.994;7.126;2023-01-28T01:11:00;3.80;49.30
9118;DHT22;4594;50.994;7.126;2023-01-28T01:13:27;3.70;49.20
9118;DHT22;4594;50.994;7.126;2023-01-28T01:16:10;3.60;49.20
9118;DHT22;4594;50.994;7.126;2023-01-28T01:18:38;3.60;48.70
9118;DHT22;4594;50.994;7.126;2023-01-28T01:21:12;3.50;49.10
9118;DHT22;4594;50.994;7.126;2023-01-28T01:23:40;3.50;48.90
9118;DHT22;4594;50.994;7.126;2023-01-28T01:26:06;3.40;49.20
9118;DHT22;4594;50.994;7.126;2023-01-28T01:28:32;3.40;49.30
9118;DHT22;4594;50.994;7.126;2023-01-28T01:31:15;3.30;49.30
9118;DHT22;4594;50.994;7.126;2023-01-28T01:33:44;3.30;49.30
9118;DHT22;4594;50.994;7.126;2023-01-28T01:36:12;3.20;49.30
9118;DHT22;4594;50.994;7.126;2023-01-28T01:38:39;3.10;49.20
9118;DHT22;4594;50.994;7.126;2023-01-28T01:41:07;3.10;49.30
9118;DHT22;4594;50.994;7.126;2023-01-28T01:46:37;3.00;48.70
9118;DHT22;4594;50.994;7.126;2023-01-28T01:51:46;2.90;49.00
9118;DHT22;4594;50.994;7.126;2023-01-28T01:54:16;2.90;49.30
9118;DHT22;4594;50.994;7.126;2023-01-28T01:56:47;2.80;49.30
9118;DHT22;4594;50.994;7.126;2023-01-28T01:59:18;2.80;49.30
9118;DHT22;4594;50.994;7.126;2023-01-28T02:01:48;2.80;49.30
9118;DHT22;4594;50.994;7.126;2023-01-28T02:04:26;2.70;49.40
9118;DHT22;4594;50.994;7.126;2023-01-28T02:06:57;2.70;49.10
9118;DHT22;4594;50.994;7.126;2023-01-28T02:09:28;2.70;49.60
9118;DHT22;4594;50.994;7.126;2023-01-28T02:12:09;2.60;49.40
9118;DHT22;4594;50.994;7.126;2023-01-28T02:14:47;2.60;49.30
9118;DHT22;4594;50.994;7.126;2023-01-28T02:17:21;2.60;49.40
9118;DHT22;4594;50.994;7.126;2023-01-28T02:19:57;2.50;49.60
9118;DHT22;4594;50.994;7.126;2023-01-28T02:29:04;2.50;49.20
9118;DHT22;4594;50.994;7.126;2023-01-28T02:32:24;2.40;49.60
9118;DHT22;4594;50.994;7.126;2023-01-28T02:34:51;2.40;49.60
9118;DHT22;4594;50.994;7.126;2023-01-28T02:37:37;2.40;50.00
9118;DHT22;4594;50.994;7.126;2023-01-28T02:40:33;2.40;50.00
9118;DHT22;4594;50.994;7.126;2023-01-28T02:43:43;2.40;49.80
9118;DHT22;4594;50.994;7.126;2023-01-28T02:49:27;2.40;50.10
9118;DHT22;4594;50.994;7.126;2023-01-28T03:06:23;2.30;50.20
9118;DHT22;4594;50.994;7.126;2023-01-28T03:08:56;2.30;50.10
9118;DHT22;4594;50.994;7.126;2023-01-28T03:12:04;2.30;50.30
9118;DHT22;4594;50.994;7.126;2023-01-28T03:14:59;2.30;50.30
9118;DHT22;4594;50.994;7.126;2023-01-28T03:24:48;2.20;49.70
9118;DHT22;4594;50.994;7.126;2023-01-28T03:27:38;2.20;49.60
9118;DHT22;4594;50.994;7.126;2023-01-28T03:30:53;2.10;50.00
9118;DHT22;4594;50.994;7.126;2023-01-28T03:33:46;2.10;49.80
9118;DHT22;4594;50.994;7.126;2023-01-28T03:36:31;2.10;50.00
9118;DHT22;4594;50.994;7.126;2023-01-28T03:39:23;2.10;50.00
9118;DHT22;4594;50.994;7.126;2023-01-28T03:42:11;2.00;49.80
9118;DHT22;4594;50.994;7.126;2023-01-28T03:44:38;2.00;49.50
9118;DHT22;4594;50.994;7.126;2023-01-28T03:47:17;2.00;50.00
9118;DHT22;4594;50.994;7.126;2023-01-28T03:49:54;1.90;49.90
9118;DHT22;4594;50.994;7.126;2023-01-28T03:52:24;1.90;49.90
9118;DHT22;4594;50.994;7.126;2023-01-28T03:54:52;1.90;49.80
9118;DHT22;4594;50.994;7.126;2023-01-28T03:57:20;1.90;49.90
9118;DHT22;4594;50.994;7.126;2023-01-28T03:59:47;1.90;49.90
9118;DHT22;4594;50.994;7.126;2023-01-28T04:02:17;1.80;50.00
9118;DHT22;4594;50.994;7.126;2023-01-28T04:04:47;1.80;50.00
9118;DHT22;4594;50.994;7.126;2023-01-28T04:07:14;1.80;50.00
9118;DHT22;4594;50.994;7.126;2023-01-28T04:09:41;1.80;50.00
9118;DHT22;4594;50.994;7.126;2023-01-28T04:12:08;1.80;50.00
9118;DHT22;4594;50.994;7.126;2023-01-28T04:14:34;1.80;50.10
9118;DHT22;4594;50.994;7.126;2023-01-28T04:17:00;1.70;50.00
9118;DHT22;4594;50.994;7.126;2023-01-28T04:19:26;1.70;50.00
9118;DHT22;4594;50.994;7.126;2023-01-28T04:21:53;1.70;50.00
9118;DHT22;4594;50.994;7.126;2023-01-28T04:24:20;1.70;50.00
9118;DHT22;4594;50.994;7.126;2023-01-28T04:26:46;1.70;49.90
9118;DHT22;4594;50.994;7.126;2023-01-28T04:29:12;1.70;50.00
9118;DHT22;4594;50.994;7.126;2023-01-28T04:31:38;1.60;49.90
9118;DHT22;4594;50.994;7.126;2023-01-28T04:34:03;1.60;49.80
9118;DHT22;4594;50.994;7.126;2023-01-28T04:36:29;1.60;49.80
9118;DHT22;4594;50.994;7.126;2023-01-28T04:38:55;1.60;49.90
9118;DHT22;4594;50.994;7.126;2023-01-28T04:41:20;1.60;49.90
9118;DHT22;4594;50.994;7.126;2023-01-28T04:43:46;1.60;49.90
9118;DHT22;4594;50.994;7.126;2023-01-28T04:46:14;1.60;49.90
9118;DHT22;4594;50.994;7.126;2023-01-28T04:48:40;1.50;49.80
9118;DHT22;4594;50.994;7.126;2023-01-28T04:51:06;1.50;49.80
9118;DHT22;4594;50.994;7.126;2023-01-28T04:53:32;1.50;49.80
9118;DHT22;4594;50.994;7.126;2023-01-28T04:55:58;1.50;49.80
9118;DHT22;4594;50.994;7.126;2023-01-28T04:58:24;1.50;49.80
9118;DHT22;4594;50.994;7.126;2023-01-28T05:00:57;1.50;49.90
9118;DHT22;4594;50.994;7.126;2023-01-28T05:03:24;1.50;49.80
9118;DHT22;4594;50.994;7.126;2023-01-28T05:05:50;1.50;49.90
9118;DHT22;4594;50.994;7.126;2023-01-28T05:08:17;1.40;49.90
9118;DHT22;4594;50.994;7.126;2023-01-28T05:10:43;1.40;50.10
9118;DHT22;4594;50.994;7.126;2023-01-28T05:13:09;1.40;50.30
9118;DHT22;4594;50.994;7.126;2023-01-28T05:15:35;1.50;50.70
9118;DHT22;4594;50.994;7.126;2023-01-28T05:18:01;1.50;51.00
9118;DHT22;4594;50.994;7.126;2023-01-28T05:20:27;1.50;51.30
9118;DHT22;4594;50.994;7.126;2023-01-28T05:22:53;1.60;51.70
9118;DHT22;4594;50.994;7.126;2023-01-28T05:25:19;1.60;51.90
9118;DHT22;4594;50.994;7.126;2023-01-28T05:27:52;1.70;52.20
9118;DHT22;4594;50.994;7.126;2023-01-28T05:30:19;1.80;52.30
9118;DHT22;4594;50.994;7.126;2023-01-28T05:32:45;1.90;52.50
9118;DHT22;4594;50.994;7.126;2023-01-28T05:35:11;1.90;52.60
9118;DHT22;4594;50.994;7.126;2023-01-28T05:37:36;2.00;52.80
9118;DHT22;4594;50.994;7.126;2023-01-28T05:40:02;2.10;53.00
9118;DHT22;4594;50.994;7.126;2023-01-28T05:42:28;2.20;53.20
9118;DHT22;4594;50.994;7.126;2023-01-28T05:44:54;2.30;53.30
9118;DHT22;4594;50.994;7.126;2023-01-28T05:47:20;2.30;53.40
9118;DHT22;4594;50.994;7.126;2023-01-28T05:49:45;2.40;53.60
9118;DHT22;4594;50.994;7.126;2023-01-28T05:52:11;2.50;53.60
9118;DHT22;4594;50.994;7.126;2023-01-28T05:54:37;2.60;53.70
9118;DHT22;4594;50.994;7.126;2023-01-28T05:57:03;2.70;53.70
9118;DHT22;4594;50.994;7.126;2023-01-28T05:59:29;2.70;53.70
9118;DHT22;4594;50.994;7.126;2023-01-28T06:01:55;2.80;53.70
9118;DHT22;4594;50.994;7.126;2023-01-28T06:04:21;2.90;53.80
9118;DHT22;4594;50.994;7.126;2023-01-28T06:06:46;3.00;53.80
9118;DHT22;4594;50.994;7.126;2023-01-28T06:09:12;3.00;53.80
9118;DHT22;4594;50.994;7.126;2023-01-28T06:11:38;3.10;53.90
9118;DHT22;4594;50.994;7.126;2023-01-28T06:14:04;3.20;53.90
9118;DHT22;4594;50.994;7.126;2023-01-28T06:16:29;3.30;53.90
9118;DHT22;4594;50.994;7.126;2023-01-28T06:18:55;3.30;53.80
9118;DHT22;4594;50.994;7.126;2023-01-28T06:21:21;3.30;53.80
9118;DHT22;4594;50.994;7.126;2023-01-28T06:23:47;3.40;53.90
9118;DHT22;4594;50.994;7.126;2023-01-28T06:26:13;3.50;54.10
9118;DHT22;4594;50.994;7.126;2023-01-28T06:28:39;3.50;54.10
9118;DHT22;4594;50.994;7.126;2023-01-28T06:31:04;3.60;54.20
9118;DHT22;4594;50.994;7.126;2023-01-28T06:33:30;3.70;54.30
9118;DHT22;4594;50.994;7.126;2023-01-28T06:35:56;3.70;54.30
9118;DHT22;4594;50.994;7.126;2023-01-28T06:38:22;3.80;54.30
9118;DHT22;4594;50.994;7.126;2023-01-28T06:40:52;3.90;54.30
9118;DHT22;4594;50.994;7.126;2023-01-28T06:43:20;3.90;53.90
9118;DHT22;4594;50.994;7.126;2023-01-28T06:45:55;4.00;54.20
9118;DHT22;4594;50.994;7.126;2023-01-28T06:48:22;4.00;54.10
9118;DHT22;4594;50.994;7.126;2023-01-28T06:50:49;4.10;54.10
9118;DHT22;4594;50.994;7.126;2023-01-28T06:53:16;4.10;54.00
9118;DHT22;4594;50.994;7.126;2023-01-28T06:55:42;4.20;54.00
9118;DHT22;4594;50.994;7.126;2023-01-28T06:58:08;4.20;53.90
9118;DHT22;4594;50.994;7.126;2023-01-28T07:00:34;4.20;53.80
9118;DHT22;4594;50.994;7.126;2023-01-28T07:02:59;4.30;53.80
9118;DHT22;4594;50.994;7.126;2023-01-28T07:05:25;4.30;53.60
9118;DHT22;4594;50.994;7.126;2023-01-28T07:07:51;4.30;53.60
9118;DHT22;4594;50.994;7.126;2023-01-28T07:10:17;4.30;53.50
9118;DHT22;4594;50.994;7.126;2023-01-28T07:12:43;4.40;53.60
9118;DHT22;4594;50.994;7.126;2023-01-28T07:15:09;4.40;53.60
9118;DHT22;4594;50.994;7.126;2023-01-28T07:17:39;4.40;53.50
9118;DHT22;4594;50.994;7.126;2023-01-28T07:20:10;4.40;53.20
9118;DHT22;4594;50.994;7.126;2023-01-28T07:22:39;4.50;53.30
9118;DHT22;4594;50.994;7.126;2023-01-28T07:25:07;4.50;53.20
9118;DHT22;4594;50.994;7.126;2023-01-28T07:27:33;4.50;53.20
9118;DHT22;4594;50.994;7.126;2023-01-28T07:29:59;4.50;53.20
9118;DHT22;4594;50.994;7.126;2023-01-28T07:32:25;4.50;53.20
9118;DHT22;4594;50.994;7.126;2023-01-28T07:34:54;4.60;53.20
9118;DHT22;4594;50.994;7.126;2023-01-28T07:37:20;4.60;53.20
9118;DHT22;4594;50.994;7.126;2023-01-28T07:39:46;4.60;53.10
9118;DHT22;4594;50.994;7.126;2023-01-28T07:42:12;4.60;53.00
9118;DHT22;4594;50.994;7.126;2023-01-28T07:44:38;4.60;53.00
9118;DHT22;4594;50.994;7.126;2023-01-28T07:47:05;4.60;53.00
9118;DHT22;4594;50.994;7.126;2023-01-28T07:49:32;4.70;52.80
9118;DHT22;4594;50.994;7.126;2023-01-28T07:51:59;4.70;52.70
9118;DHT22;4594;50.994;7.126;2023-01-28T07:54:24;4.70;52.80
9118;DHT22;4594;50.994;7.126;2023-01-28T07:56:50;4.70;52.70
9118;DHT22;4594;50.994;7.126;2023-01-28T07:59:16;4.70;52.70
9118;DHT22;4594;50.994;7.126;2023-01-28T08:01:41;4.70;52.70
9118;DHT22;4594;50.994;7.126;2023-01-28T08:04:07;4.80;52.80
9118;DHT22;4594;50.994;7.126;2023-01-28T08:06:33;4.80;52.80
9118;DHT22;4594;50.994;7.126;2023-01-28T08:09:03;4.80;52.80
9118;DHT22;4594;50.994;7.126;2023-01-28T08:11:31;4.80;52.60
9118;DHT22;4594;50.994;7.126;2023-01-28T08:13:57;4.80;52.60
9118;DHT22;4594;50.994;7.126;2023-01-28T08:16:23;4.80;52.60
9118;DHT22;4594;50.994;7.126;2023-01-28T08:18:49;4.80;52.60
9118;DHT22;4594;50.994;7.126;2023-01-28T08:21:15;4.80;52.40
9118;DHT22;4594;50.994;7.126;2023-01-28T08:23:40;4.90;52.50
9118;DHT22;4594;50.994;7.126;2023-01-28T08:26:06;4.90;52.40
9118;DHT22;4594;50.994;7.126;2023-01-28T08:28:31;4.90;52.40
9118;DHT22;4594;50.994;7.126;2023-01-28T08:30:59;4.90;52.40
9118;DHT22;4594;50.994;7.126;2023-01-28T08:33:25;4.90;52.10
9118;DHT22;4594;50.994;7.126;2023-01-28T08:35:51;4.90;52.40
9118;DHT22;4594;50.994;7.126;2023-01-28T08:38:18;5.00;52.50
9118;DHT22;4594;50.994;7.126;2023-01-28T08:40:45;5.00;52.50
9118;DHT22;4594;50.994;7.126;2023-01-28T08:43:12;5.00;52.50
9118;DHT22;4594;50.994;7.126;2023-01-28T08:45:41;5.00;52.40
9118;DHT22;4594;50.994;7.126;2023-01-28T08:48:10;5.00;52.00
9118;DHT22;4594;50.994;7.126;2023-01-28T08:50:39;5.00;52.40
9118;DHT22;4594;50.994;7.126;2023-01-28T08:53:18;5.00;52.50
9118;DHT22;4594;50.994;7.126;2023-01-28T08:55:45;5.10;51.00
9118;DHT22;4594;50.994;7.126;2023-01-28T08:58:16;5.10;52.40
9118;DHT22;4594;50.994;7.126;2023-01-28T09:00:43;5.10;51.70
9118;DHT22;4594;50.994;7.126;2023-01-28T09:03:09;5.10;52.30
9118;DHT22;4594;50.994;7.126;2023-01-28T09:05:36;5.10;52.30
9118;DHT22;4594;50.994;7.126;2023-01-28T09:08:03;5.20;52.20
9118;DHT22;4594;50.994;7.126;2023-01-28T09:10:33;5.20;52.20
9118;DHT22;4594;50.994;7.126;2023-01-28T09:13:10;5.20;52.30
9118;DHT22;4594;50.994;7.126;2023-01-28T09:15:37;5.20;51.20
9118;DHT22;4594;50.994;7.126;2023-01-28T09:18:03;5.20;52.30
9118;DHT22;4594;50.994;7.126;2023-01-28T09:20:29;5.30;52.60
9118;DHT22;4594;50.994;7.126;2023-01-28T09:22:58;5.30;52.30
9118;DHT22;4594;50.994;7.126;2023-01-28T09:25:24;5.30;52.20
9118;DHT22;4594;50.994;7.126;2023-01-28T09:27:50;5.30;52.30
9118;DHT22;4594;50.994;7.126;2023-01-28T09:30:16;5.30;52.20
9118;DHT22;4594;50.994;7.126;2023-01-28T09:32:41;5.40;52.20
9118;DHT22;4594;50.994;7.126;2023-01-28T09:35:08;5.40;52.10
9118;DHT22;4594;50.994;7.126;2023-01-28T09:37:34;5.40;52.10
9118;DHT22;4594;50.994;7.126;2023-01-28T09:40:00;5.40;52.00
9118;DHT22;4594;50.994;7.126;2023-01-28T09:42:49;5.40;52.00
9118;DHT22;4594;50.994;7.126;2023-01-28T09:45:32;5.40;50.50
9118;DHT22;4594;50.994;7.126;2023-01-28T09:48:04;5.50;51.60
9118;DHT22;4594;50.994;7.126;2023-01-28T09:50:39;5.50;52.10
9118;DHT22;4594;50.994;7.126;2023-01-28T09:53:32;5.50;50.90
9118;DHT22;4594;50.994;7.126;2023-01-28T09:56:05;5.50;50.80
9118;DHT22;4594;50.994;7.126;2023-01-28T09:58:34;5.50;51.30
9118;DHT22;4594;50.994;7.126;2023-01-28T10:07:33;5.50;50.30
9118;DHT22;4594;50.994;7.126;2023-01-28T10:10:13;5.50;48.90
9118;DHT22;4594;50.994;7.126;2023-01-28T10:12:49;5.50;50.10
9118;DHT22;4594;50.994;7.126;2023-01-28T10:15:46;5.50;49.90
9118;DHT22;4594;50.994;7.126;2023-01-28T10:18:43;5.40;50.10
9118;DHT22;4594;50.994;7.126;2023-01-28T10:21:19;5.40;49.60
9118;DHT22;4594;50.994;7.126;2023-01-28T10:24:04;5.40;50.00
9118;DHT22;4594;50.994;7.126;2023-01-28T10:26:46;5.40;49.70
9118;DHT22;4594;50.994;7.126;2023-01-28T10:29:18;5.30;50.80
9118;DHT22;4594;50.994;7.126;2023-01-28T10:32:20;5.30;50.20
9118;DHT22;4594;50.994;7.126;2023-01-28T10:34:58;5.30;48.30
9118;DHT22;4594;50.994;7.126;2023-01-28T10:37:33;5.30;50.70
9118;DHT22;4594;50.994;7.126;2023-01-28T10:40:01;5.30;50.00
9118;DHT22;4594;50.994;7.126;2023-01-28T10:42:31;5.30;51.10
9118;DHT22;4594;50.994;7.126;2023-01-28T10:50:29;5.30;50.70
9118;DHT22;4594;50.994;7.126;2023-01-28T10:53:04;5.40;51.00
9118;DHT22;4594;50.994;7.126;2023-01-28T10:55:53;5.40;50.60
9118;DHT22;4594;50.994;7.126;2023-01-28T10:58:30;5.40;50.30
9118;DHT22;4594;50.994;7.126;2023-01-28T11:01:03;5.40;49.90
9118;DHT22;4594;50.994;7.126;2023-01-28T11:03:31;5.40;50.50
9118;DHT22;4594;50.994;7.126;2023-01-28T11:06:00;5.40;50.70
9118;DHT22;4594;50.994;7.126;2023-01-28T11:08:28;5.40;50.60
9118;DHT22;4594;50.994;7.126;2023-01-28T11:10:56;5.40;50.50
9118;DHT22;4594;50.994;7.126;2023-01-28T11:13:27;5.40;50.30
9118;DHT22;4594;50.994;7.126;2023-01-28T11:15:57;5.40;49.60
9118;DHT22;4594;50.994;7.126;2023-01-28T11:18:38;5.30;50.50
9118;DHT22;4594;50.994;7.126;2023-01-28T11:21:25;5.30;49.50
9118;DHT22;4594;50.994;7.126;2023-01-28T11:24:01;5.30;49.00
9118;DHT22;4594;50.994;7.126;2023-01-28T11:26:35;5.30;50.00
9118;DHT22;4594;50.994;7.126;2023-01-28T11:29:05;5.40;50.80
9118;DHT22;4594;50.994;7.126;2023-01-28T11:31:40;5.40;50.80
9118;DHT22;4594;50.994;7.126;2023-01-28T11:34:14;5.40;50.00
9118;DHT22;4594;50.994;7.126;2023-01-28T11:36:50;5.40;50.50
9118;DHT22;4594;50.994;7.126;2023-01-28T11:39:26;5.50;50.10
9118;DHT22;4594;50.994;7.126;2023-01-28T11:42:01;5.50;51.30
9118;DHT22;4594;50.994;7.126;2023-01-28T11:44:40;5.50;51.10
9118;DHT22;4594;50.994;7.126;2023-01-28T11:47:32;5.60;51.30
9118;DHT22;4594;50.994;7.126;2023-01-28T11:56:16;5.70;50.00
9118;DHT22;4594;50.994;7.126;2023-01-28T11:59:27;5.70;50.10
9118;DHT22;4594;50.994;7.126;2023-01-28T12:02:38;5.70;49.00
9118;DHT22;4594;50.994;7.126;2023-01-28T12:08:27;5.70;49.10
9118;DHT22;4594;50.994;7.126;2023-01-28T12:14:17;5.80;50.90
9118;DHT22;4594;50.994;7.126;2023-01-28T12:17:09;6.10;48.80
9118;DHT22;4594;50.994;7.126;2023-01-28T12:24:16;5.80;48.60
9118;DHT22;4594;50.994;7.126;2023-01-28T12:35:01;5.80;49.50
9118;DHT22;4594;50.994;7.126;2023-01-28T12:42:47;5.80;48.90
9118;DHT22;4594;50.994;7.126;2023-01-28T12:45:23;5.80;49.60
9118;DHT22;4594;50.994;7.126;2023-01-28T12:48:17;5.80;49.90
9118;DHT22;4594;50.994;7.126;2023-01-28T12:51:12;5.90;48.80
9118;DHT22;4594;50.994;7.126;2023-01-28T12:53:57;5.90;49.30
9118;DHT22;4594;50.994;7.126;2023-01-28T12:56:36;5.90;49.00
9118;DHT22;4594;50.994;7.126;2023-01-28T12:59:30;5.90;50.40
9118;DHT22;4594;50.994;7.126;2023-01-28T13:04:46;6.00;49.80
9118;DHT22;4594;50.994;7.126;2023-01-28T13:10:11;6.10;49.20
9118;DHT22;4594;50.994;7.126;2023-01-28T13:12:47;6.10;50.70
9118;DHT22;4594;50.994;7.126;2023-01-28T13:15:16;6.20;51.40
9118;DHT22;4594;50.994;7.126;2023-01-28T13:20:38;6.20;49.80
9118;DHT22;4594;50.994;7.126;2023-01-28T13:28:45;6.40;49.20
9118;DHT22;4594;50.994;7.126;2023-01-28T13:31:14;6.40;51.00
9118;DHT22;4594;50.994;7.126;2023-01-28T13:33:46;6.40;50.70
9118;DHT22;4594;50.994;7.126;2023-01-28T13:36:36;6.40;50.00
9118;DHT22;4594;50.994;7.126;2023-01-28T13:41:49;6.40;49.00
9118;DHT22;4594;50.994;7.126;2023-01-28T13:44:31;6.40;48.10
9118;DHT22;4594;50.994;7.126;2023-01-28T13:49:37;6.20;47.10
9118;DHT22;4594;50.994;7.126;2023-01-28T13:52:35;6.10;46.50
9118;DHT22;4594;50.994;7.126;2023-01-28T13:55:19;6.00;44.90
9118;DHT22;4594;50.994;7.126;2023-01-28T13:58:10;5.80;45.60
9118;DHT22;4594;50.994;7.126;2023-01-28T14:01:30;5.70;45.80
9118;DHT22;4594;50.994;7.126;2023-01-28T14:08:16;5.50;45.60
9118;DHT22;4594;50.994;7.126;2023-01-28T14:10:59;5.40;46.10
9118;DHT22;4594;50.994;7.126;2023-01-28T14:19:11;5.10;46.20
9118;DHT22;4594;50.994;7.126;2023-01-28T14:21:38;5.10;47.20
9118;DHT22;4594;50.994;7.126;2023-01-28T14:24:05;5.00;47.70
9118;DHT22;4594;50.994;7.126;2023-01-28T14:29:32;5.50;47.20
9118;DHT22;4594;50.994;7.126;2023-01-28T14:32:30;5.00;48.10
9118;DHT22;4594;50.994;7.126;2023-01-28T14:34:59;5.00;47.10
9118;DHT22;4594;50.994;7.126;2023-01-28T14:37:31;5.10;48.90
9118;DHT22;4594;50.994;7.126;2023-01-28T14:42:39;5.80;48.50
9118;DHT22;4594;50.994;7.126;2023-01-28T14:47:47;5.20;48.90
9118;DHT22;4594;50.994;7.126;2023-01-28T14:58:47;5.20;48.90
9118;DHT22;4594;50.994;7.126;2023-01-28T15:01:24;5.20;47.60
9118;DHT22;4594;50.994;7.126;2023-01-28T15:03:55;5.20;47.50
9118;DHT22;4594;50.994;7.126;2023-01-28T15:06:23;5.20;48.30
9118;DHT22;4594;50.994;7.126;2023-01-28T15:09:05;5.10;47.80
9118;DHT22;4594;50.994;7.126;2023-01-28T15:11:32;5.10;46.60
9118;DHT22;4594;50.994;7.126;2023-01-28T15:14:03;5.10;47.90
9118;DHT22;4594;50.994;7.126;2023-01-28T15:16:37;5.00;47.60
9118;DHT22;4594;50.994;7.126;2023-01-28T15:19:06;4.90;47.40
9118;DHT22;4594;50.994;7.126;2023-01-28T15:21:34;4.90;47.30
9118;DHT22;4594;50.994;7.126;2023-01-28T15:24:00;4.80;47.30
9118;DHT22;4594;50.994;7.126;2023-01-28T15:26:30;4.80;47.20
9118;DHT22;4594;50.994;7.126;2023-01-28T15:28:58;4.70;46.60
9118;DHT22;4594;50.994;7.126;2023-01-28T15:31:25;4.70;46.80
9118;DHT22;4594;50.994;7.126;2023-01-28T15:34:14;4.60;46.80
9118;DHT22;4594;50.994;7.126;2023-01-28T15:36:42;4.50;45.10
9118;DHT22;4594;50.994;7.126;2023-01-28T15:39:16;4.50;46.60
9118;DHT22;4594;50.994;7.126;2023-01-28T15:42:13;4.40;45.60
9118;DHT22;4594;50.994;7.126;2023-01-28T15:44:38;4.40;46.30
9118;DHT22;4594;50.994;7.126;2023-01-28T15:47:22;4.30;45.90
9118;DHT22;4594;50.994;7.126;2023-01-28T15:49:52;4.20;45.30
9118;DHT22;4594;50.994;7.126;2023-01-28T15:52:21;4.20;46.30
9118;DHT22;4594;50.994;7.126;2023-01-28T15:54:55;4.10;46.40
9118;DHT22;4594;50.994;7.126;2023-01-28T15:57:28;4.10;46.50
9118;DHT22;4594;50.994;7.126;2023-01-28T16:00:12;4.00;45.90
9118;DHT22;4594;50.994;7.126;2023-01-28T16:02:47;4.00;45.50
9118;DHT22;4594;50.994;7.126;2023-01-28T16:05:27;3.90;45.90
9118;DHT22;4594;50.994;7.126;2023-01-28T16:07:57;3.90;45.70
9118;DHT22;4594;50.994;7.126;2023-01-28T16:10:27;3.80;46.50
9118;DHT22;4594;50.994;7.126;2023-01-28T16:13:00;3.70;45.70
9118;DHT22;4594;50.994;7.126;2023-01-28T16:15:31;3.70;46.20
9118;DHT22;4594;50.994;7.126;2023-01-28T16:17:58;3.60;46.00
9118;DHT22;4594;50.994;7.126;2023-01-28T16:20:27;3.50;46.00
9118;DHT22;4594;50.994;7.126;2023-01-28T16:22:56;3.50;45.80
9118;DHT22;4594;50.994;7.126;2023-01-28T16:25:30;3.50;45.90
9118;DHT22;4594;50.994;7.126;2023-01-28T16:28:00;3.40;45.60
9118;DHT22;4594;50.994;7.126;2023-01-28T16:30:28;3.30;45.80
9118;DHT22;4594;50.994;7.126;2023-01-28T16:32:54;3.30;46.00
9118;DHT22;4594;50.994;7.126;2023-01-28T16:35:23;3.20;46.00
9118;DHT22;4594;50.994;7.126;2023-01-28T16:37:52;3.10;45.70
9118;DHT22;4594;50.994;7.126;2023-01-28T16:40:21;3.10;45.90
9118;DHT22;4594;50.994;7.126;2023-01-28T16:42:48;3.10;45.80
9118;DHT22;4594;50.994;7.126;2023-01-28T16:45:16;3.00;45.90
9118;DHT22;4594;50.994;7.126;2023-01-28T16:47:44;3.00;45.90
9118;DHT22;4594;50.994;7.126;2023-01-28T16:50:11;2.90;46.00
9118;DHT22;4594;50.994;7.126;2023-01-28T16:52:39;2.90;45.90
9118;DHT22;4594;50.994;7.126;2023-01-28T16:55:13;2.80;46.00
9118;DHT22;4594;50.994;7.126;2023-01-28T16:57:40;2.80;45.80
9118;DHT22;4594;50.994;7.126;2023-01-28T17:00:11;2.70;46.10
9118;DHT22;4594;50.994;7.126;2023-01-28T17:02:41;2.70;46.20
9118;DHT22;4594;50.994;7.126;2023-01-28T17:05:07;2.70;46.30
9118;DHT22;4594;50.994;7.126;2023-01-28T17:07:36;2.60;46.20
9118;DHT22;4594;50.994;7.126;2023-01-28T17:10:02;2.60;46.30
9118;DHT22;4594;50.994;7.126;2023-01-28T17:12:29;2.60;46.30
9118;DHT22;4594;50.994;7.126;2023-01-28T17:14:55;2.50;46.30
9118;DHT22;4594;50.994;7.126;2023-01-28T17:17:20;2.50;46.40
9118;DHT22;4594;50.994;7.126;2023-01-28T17:19:46;2.50;46.40
9118;DHT22;4594;50.994;7.126;2023-01-28T17:22:12;2.40;46.30
9118;DHT22;4594;50.994;7.126;2023-01-28T17:24:37;2.40;46.30
9118;DHT22;4594;50.994;7.126;2023-01-28T17:27:03;2.30;46.30
9118;DHT22;4594;50.994;7.126;2023-01-28T17:29:30;2.30;46.70
9118;DHT22;4594;50.994;7.126;2023-01-28T17:31:56;2.30;46.30
9118;DHT22;4594;50.994;7.126;2023-01-28T17:34:21;2.30;46.40
9118;DHT22;4594;50.994;7.126;2023-01-28T17:36:47;2.20;46.40
9118;DHT22;4594;50.994;7.126;2023-01-28T17:39:13;2.20;46.40
9118;DHT22;4594;50.994;7.126;2023-01-28T17:41:38;2.20;46.50
9118;DHT22;4594;50.994;7.126;2023-01-28T17:44:04;2.20;46.60
9118;DHT22;4594;50.994;7.126;2023-01-28T17:46:30;2.20;46.60
9118;DHT22;4594;50.994;7.126;2023-01-28T17:48:56;2.10;46.60
9118;DHT22;4594;50.994;7.126;2023-01-28T17:51:21;2.10;46.60
9118;DHT22;4594;50.994;7.126;2023-01-28T17:53:49;2.10;46.60
9118;DHT22;4594;50.994;7.126;2023-01-28T17:56:19;2.10;46.60
9118;DHT22;4594;50.994;7.126;2023-01-28T18:01:22;2.10;46.30
9118;DHT22;4594;50.994;7.126;2023-01-28T18:03:49;2.00;46.70
9118;DHT22;4594;50.994;7.126;2023-01-28T18:06:15;2.00;46.70
9118;DHT22;4594;50.994;7.126;2023-01-28T18:08:41;2.00;46.70
9118;DHT22;4594;50.994;7.126;2023-01-28T18:11:10;1.90;46.50
9118;DHT22;4594;50.994;7.126;2023-01-28T18:13:39;1.90;46.40
9118;DHT22;4594;50.994;7.126;2023-01-28T18:16:06;1.90;46.40
9118;DHT22;4594;50.994;7.126;2023-01-28T18:18:35;1.80;46.30
9118;DHT22;4594;50.994;7.126;2023-01-28T18:21:05;1.80;46.40
9118;DHT22;4594;50.994;7.126;2023-01-28T18:23:33;1.80;46.20
9118;DHT22;4594;50.994;7.126;2023-01-28T18:26:01;1.70;46.40
9118;DHT22;4594;50.994;7.126;2023-01-28T18:28:28;1.70;46.40
9118;DHT22;4594;50.994;7.126;2023-01-28T18:30:54;1.60;46.40
9118;DHT22;4594;50.994;7.126;2023-01-28T18:33:21;1.60;46.40
9118;DHT22;4594;50.994;7.126;2023-01-28T18:35:47;1.60;46.30
9118;DHT22;4594;50.994;7.126;2023-01-28T18:38:15;1.50;46.40
9118;DHT22;4594;50.994;7.126;2023-01-28T18:40:46;1.50;46.50
9118;DHT22;4594;50.994;7.126;2023-01-28T18:43:13;1.50;46.60
9118;DHT22;4594;50.994;7.126;2023-01-28T18:45:40;1.50;46.90
9118;DHT22;4594;50.994;7.126;2023-01-28T18:48:06;1.50;46.90
9118;DHT22;4594;50.994;7.126;2023-01-28T18:50:32;1.50;46.90
9118;DHT22;4594;50.994;7.126;2023-01-28T18:52:58;1.40;46.80
9118;DHT22;4594;50.994;7.126;2023-01-28T18:55:24;1.40;46.80